sensor_id;sensor_type;location;lat;lon;timestamp;pressure;altitude;pressure_sealevel;temperature;humidity
5814;BME280;2933;52.302;8.134;2022-11-15T00:02:43;100052.84;;;5.89;100.00
5814;BME280;2933;52.302;8.134;2022-11-15T00:07:44;100043.69;;;6.01;100.00
5814;BME280;2933;52.302;8.134;2022-11-15T00:12:47;100024.81;;;5.97;100.00
5814;BME280;2933;52.302;8.134;2022-11-15T00:17:49;100032.44;;;6.18;100.00
5814;BME280;2933;52.302;8.134;2022-11-15T00:22:51;100044.75;;;6.32;100.00
5814;BME280;2933;52.302;8.134;2022-11-15T00:27:56;100048.78;;;6.37;100.00
5814;BME280;2933;52.302;8.134;2022-11-15T00:33:01;100040.06;;;6.56;100.00
5814;BME280;2933;52.302;8.134;2022-11-15T00:38:03;100033.22;;;6.71;100.00
5814;BME280;2933;52.302;8.134;2022-11-15T00:43:06;100036.28;;;6.79;100.00
5814;BME280;2933;52.302;8.134;2022-11-15T00:48:08;100025.25;;;6.91;100.00
5814;BME280;2933;52.302;8.134;2022-11-15T00:53:11;100016.50;;;6.92;100.00
5814;BME280;2933;52.302;8.134;2022-11-15T00:58:13;100028.41;;;6.81;100.00
5814;BME280;2933;52.302;8.134;2022-11-15T01:03:15;100020.94;;;6.74;100.00
5814;BME280;2933;52.302;8.134;2022-11-15T01:08:40;100012.66;;;6.84;100.00
5814;BME280;2933;52.302;8.134;2022-11-15T01:13:43;100009.22;;;6.83;100.00
5814;BME280;2933;52.302;8.134;2022-11-15T01:18:45;100006.72;;;6.82;100.00
5814;BME280;2933;52.302;8.134;2022-11-15T01:23:46;100002.19;;;6.85;100.00
5814;BME280;2933;52.302;8.134;2022-11-15T01:28:50;99966.75;;;6.68;100.00
5814;BME280;2933;52.302;8.134;2022-11-15T01:33:51;99989.38;;;6.82;100.00
5814;BME280;2933;52.302;8.134;2022-11-15T01:38:53;99986.69;;;7.00;100.00
5814;BME280;2933;52.302;8.134;2022-11-15T01:44:28;99955.72;;;6.97;100.00
5814;BME280;2933;52.302;8.134;2022-11-15T01:49:21;99970.44;;;7.12;100.00
5814;BME280;2933;52.302;8.134;2022-11-15T01:54:23;99962.91;;;7.23;100.00
5814;BME280;2933;52.302;8.134;2022-11-15T01:59:26;99957.66;;;7.25;100.00
5814;BME280;2933;52.302;8.134;2022-11-15T02:04:31;99954.28;;;7.23;100.00
5814;BME280;2933;52.302;8.134;2022-11-15T02:09:35;99951.34;;;7.29;100.00
5814;BME280;2933;52.302;8.134;2022-11-15T02:14:38;99929.97;;;7.24;100.00
5814;BME280;2933;52.302;8.134;2022-11-15T02:20:04;99909.63;;;7.16;100.00
5814;BME280;2933;52.302;8.134;2022-11-15T02:25:27;99930.97;;;7.37;100.00
5814;BME280;2933;52.302;8.134;2022-11-15T02:30:38;99931.88;;;7.52;100.00
5814;BME280;2933;52.302;8.134;2022-11-15T02:35:48;99934.03;;;7.60;100.00
5814;BME280;2933;52.302;8.134;2022-11-15T02:40:58;99929.38;;;7.65;100.00
5814;BME280;2933;52.302;8.134;2022-11-15T02:46:06;99922.41;;;7.66;100.00
5814;BME280;2933;52.302;8.134;2022-11-15T02:51:09;99915.00;;;7.74;100.00
5814;BME280;2933;52.302;8.134;2022-11-15T02:56:11;99912.50;;;7.72;100.00
5814;BME280;2933;52.302;8.134;2022-11-15T03:01:21;99876.63;;;7.49;100.00
5814;BME280;2933;52.302;8.134;2022-11-15T03:06:31;99918.38;;;7.76;100.00
5814;BME280;2933;52.302;8.134;2022-11-15T03:11:40;99925.16;;;7.79;100.00
5814;BME280;2933;52.302;8.134;2022-11-15T03:16:46;99915.31;;;7.84;100.00
5814;BME280;2933;52.302;8.134;2022-11-15T03:21:50;99918.69;;;8.00;100.00
5814;BME280;2933;52.302;8.134;2022-11-15T03:26:53;99926.06;;;8.37;100.00
5814;BME280;2933;52.302;8.134;2022-11-15T03:32:00;99913.59;;;8.56;100.00
5814;BME280;2933;52.302;8.134;2022-11-15T03:37:04;99909.28;;;8.84;100.00
5814;BME280;2933;52.302;8.134;2022-11-15T03:42:14;99887.66;;;8.69;100.00
5814;BME280;2933;52.302;8.134;2022-11-15T03:47:25;99888.88;;;8.91;100.00
5814;BME280;2933;52.302;8.134;2022-11-15T03:52:31;99909.34;;;8.97;100.00
5814;BME280;2933;52.302;8.134;2022-11-15T03:57:33;99920.94;;;9.06;100.00
5814;BME280;2933;52.302;8.134;2022-11-15T04:02:36;99898.25;;;9.08;100.00
5814;BME280;2933;52.302;8.134;2022-11-15T04:07:38;99899.00;;;9.10;100.00
5814;BME280;2933;52.302;8.134;2022-11-15T04:12:42;99903.50;;;9.21;100.00
5814;BME280;2933;52.302;8.134;2022-11-15T04:17:47;99911.69;;;9.15;100.00
5814;BME280;2933;52.302;8.134;2022-11-15T04:22:48;99919.19;;;9.07;100.00
5814;BME280;2933;52.302;8.134;2022-11-15T04:28:11;99908.03;;;9.04;100.00
5814;BME280;2933;52.302;8.134;2022-11-15T04:33:14;99915.34;;;9.12;100.00
5814;BME280;2933;52.302;8.134;2022-11-15T04:38:16;99913.53;;;9.27;100.00
5814;BME280;2933;52.302;8.134;2022-11-15T04:43:17;99890.84;;;9.15;100.00
5814;BME280;2933;52.302;8.134;2022-11-15T04:48:20;99907.38;;;9.28;100.00
5814;BME280;2933;52.302;8.134;2022-11-15T04:53:22;99909.16;;;9.28;100.00
5814;BME280;2933;52.302;8.134;2022-11-15T04:58:23;99908.84;;;9.32;100.00
5814;BME280;2933;52.302;8.134;2022-11-15T05:03:26;99914.41;;;9.41;100.00
5814;BME280;2933;52.302;8.134;2022-11-15T05:08:45;99917.13;;;9.52;100.00
5814;BME280;2933;52.302;8.134;2022-11-15T05:13:47;99911.41;;;9.60;100.00
5814;BME280;2933;52.302;8.134;2022-11-15T05:18:51;99904.78;;;9.68;100.00
5814;BME280;2933;52.302;8.134;2022-11-15T05:23:53;99892.56;;;9.56;100.00
5814;BME280;2933;52.302;8.134;2022-11-15T05:28:57;99889.78;;;9.45;100.00
5814;BME280;2933;52.302;8.134;2022-11-15T05:34:00;99906.53;;;9.55;100.00
5814;BME280;2933;52.302;8.134;2022-11-15T05:39:06;99890.13;;;9.40;100.00
5814;BME280;2933;52.302;8.134;2022-11-15T05:44:10;99910.28;;;9.64;100.00
5814;BME280;2933;52.302;8.134;2022-11-15T05:49:18;99899.84;;;9.64;100.00
5814;BME280;2933;52.302;8.134;2022-11-15T05:54:21;99903.06;;;9.54;100.00
5814;BME280;2933;52.302;8.134;2022-11-15T05:59:23;99902.13;;;9.43;100.00
5814;BME280;2933;52.302;8.134;2022-11-15T06:04:27;99908.59;;;9.50;100.00
5814;BME280;2933;52.302;8.134;2022-11-15T06:09:28;99906.00;;;9.50;100.00
5814;BME280;2933;52.302;8.134;2022-11-15T06:14:30;99895.22;;;9.42;100.00
5814;BME280;2933;52.302;8.134;2022-11-15T06:19:33;99912.97;;;9.49;100.00
5814;BME280;2933;52.302;8.134;2022-11-15T06:24:34;99908.72;;;9.61;100.00
5814;BME280;2933;52.302;8.134;2022-11-15T06:29:36;99914.41;;;9.53;100.00
5814;BME280;2933;52.302;8.134;2022-11-15T06:34:39;99907.47;;;9.54;100.00
5814;BME280;2933;52.302;8.134;2022-11-15T06:39:41;99916.44;;;9.50;100.00
5814;BME280;2933;52.302;8.134;2022-11-15T06:44:42;99919.56;;;9.55;100.00
5814;BME280;2933;52.302;8.134;2022-11-15T06:49:45;99916.44;;;9.50;100.00
5814;BME280;2933;52.302;8.134;2022-11-15T06:54:47;99922.75;;;9.46;100.00
5814;BME280;2933;52.302;8.134;2022-11-15T06:59:48;99922.03;;;9.44;100.00
5814;BME280;2933;52.302;8.134;2022-11-15T07:04:51;99927.66;;;9.37;100.00
5814;BME280;2933;52.302;8.134;2022-11-15T07:09:53;99919.38;;;9.31;100.00
5814;BME280;2933;52.302;8.134;2022-11-15T07:14:54;99938.78;;;9.40;100.00
5814;BME280;2933;52.302;8.134;2022-11-15T07:19:58;99914.81;;;9.34;100.00
5814;BME280;2933;52.302;8.134;2022-11-15T07:24:59;99941.09;;;9.44;100.00
5814;BME280;2933;52.302;8.134;2022-11-15T07:30:01;99947.78;;;9.48;100.00
5814;BME280;2933;52.302;8.134;2022-11-15T07:35:04;99944.25;;;9.49;100.00
5814;BME280;2933;52.302;8.134;2022-11-15T07:40:08;99946.31;;;9.44;100.00
5814;BME280;2933;52.302;8.134;2022-11-15T07:45:09;99950.31;;;9.50;100.00
5814;BME280;2933;52.302;8.134;2022-11-15T07:50:12;99945.72;;;9.53;100.00
5814;BME280;2933;52.302;8.134;2022-11-15T07:55:14;99921.28;;;9.42;100.00
5814;BME280;2933;52.302;8.134;2022-11-15T08:00:16;99924.13;;;9.51;100.00
5814;BME280;2933;52.302;8.134;2022-11-15T08:05:20;99909.41;;;9.37;100.00
5814;BME280;2933;52.302;8.134;2022-11-15T08:10:21;99943.50;;;9.75;100.00
5814;BME280;2933;52.302;8.134;2022-11-15T08:15:23;99933.78;;;9.77;100.00
5814;BME280;2933;52.302;8.134;2022-11-15T08:20:27;99921.38;;;9.80;100.00
5814;BME280;2933;52.302;8.134;2022-11-15T08:25:31;99927.97;;;9.99;100.00
5814;BME280;2933;52.302;8.134;2022-11-15T08:30:35;99930.56;;;10.12;100.00
5814;BME280;2933;52.302;8.134;2022-11-15T08:35:39;99927.22;;;10.23;100.00
5814;BME280;2933;52.302;8.134;2022-11-15T08:40:41;99923.81;;;10.22;100.00
5814;BME280;2933;52.302;8.134;2022-11-15T08:45:43;99937.25;;;10.29;100.00
5814;BME280;2933;52.302;8.134;2022-11-15T08:50:47;99914.16;;;10.35;100.00
5814;BME280;2933;52.302;8.134;2022-11-15T08:55:49;99921.28;;;10.46;100.00
5814;BME280;2933;52.302;8.134;2022-11-15T09:00:50;99924.94;;;10.44;100.00
5814;BME280;2933;52.302;8.134;2022-11-15T09:05:55;99936.41;;;10.54;100.00
5814;BME280;2933;52.302;8.134;2022-11-15T09:10:57;99933.28;;;10.62;100.00
5814;BME280;2933;52.302;8.134;2022-11-15T09:15:59;99923.63;;;10.75;100.00
5814;BME280;2933;52.302;8.134;2022-11-15T09:21:02;99926.34;;;10.87;100.00
5814;BME280;2933;52.302;8.134;2022-11-15T09:26:05;99921.00;;;10.88;100.00
5814;BME280;2933;52.302;8.134;2022-11-15T09:31:07;99913.28;;;10.87;100.00
5814;BME280;2933;52.302;8.134;2022-11-15T09:36:11;99929.22;;;10.95;100.00
5814;BME280;2933;52.302;8.134;2022-11-15T09:41:24;99930.47;;;11.02;100.00
5814;BME280;2933;52.302;8.134;2022-11-15T09:46:34;99927.16;;;11.11;100.00
5814;BME280;2933;52.302;8.134;2022-11-15T09:51:43;99923.66;;;11.24;100.00
5814;BME280;2933;52.302;8.134;2022-11-15T09:56:47;99924.72;;;11.45;100.00
5814;BME280;2933;52.302;8.134;2022-11-15T10:01:55;99914.75;;;11.51;100.00
5814;BME280;2933;52.302;8.134;2022-11-15T10:07:02;99903.81;;;11.45;100.00
5814;BME280;2933;52.302;8.134;2022-11-15T10:12:06;99904.78;;;11.56;98.84
5814;BME280;2933;52.302;8.134;2022-11-15T10:17:31;99899.56;;;11.56;97.96
5814;BME280;2933;52.302;8.134;2022-11-15T10:22:39;99897.09;;;11.66;97.13
5814;BME280;2933;52.302;8.134;2022-11-15T10:27:42;99882.72;;;11.71;95.38
5814;BME280;2933;52.302;8.134;2022-11-15T10:32:46;99879.25;;;11.71;94.29
5814;BME280;2933;52.302;8.134;2022-11-15T10:37:50;99878.44;;;11.82;93.93
5814;BME280;2933;52.302;8.134;2022-11-15T10:43:05;99871.25;;;11.96;91.53
5814;BME280;2933;52.302;8.134;2022-11-15T10:48:22;99867.22;;;12.04;86.84
5814;BME280;2933;52.302;8.134;2022-11-15T10:53:31;99856.38;;;12.08;86.40
5814;BME280;2933;52.302;8.134;2022-11-15T10:58:37;99852.31;;;12.16;84.72
5814;BME280;2933;52.302;8.134;2022-11-15T11:03:40;99855.78;;;12.27;83.95
5814;BME280;2933;52.302;8.134;2022-11-15T11:08:55;99846.97;;;12.28;82.56
5814;BME280;2933;52.302;8.134;2022-11-15T11:14:11;99837.47;;;12.16;81.19
5814;BME280;2933;52.302;8.134;2022-11-15T11:19:23;99837.66;;;12.24;80.84
5814;BME280;2933;52.302;8.134;2022-11-15T11:24:35;99823.91;;;12.11;80.17
5814;BME280;2933;52.302;8.134;2022-11-15T11:29:55;99826.72;;;12.31;79.21
5814;BME280;2933;52.302;8.134;2022-11-15T11:35:06;99826.59;;;12.43;79.55
5814;BME280;2933;52.302;8.134;2022-11-15T11:40:27;99812.25;;;12.59;79.24
5814;BME280;2933;52.302;8.134;2022-11-15T11:45:52;99810.78;;;12.77;78.19
5814;BME280;2933;52.302;8.134;2022-11-15T11:51:08;99793.81;;;12.93;74.82
5814;BME280;2933;52.302;8.134;2022-11-15T11:56:21;99789.59;;;12.81;75.71
5814;BME280;2933;52.302;8.134;2022-11-15T12:01:26;99789.72;;;12.68;75.25
5814;BME280;2933;52.302;8.134;2022-11-15T12:06:32;99780.19;;;12.78;73.01
5814;BME280;2933;52.302;8.134;2022-11-15T12:11:41;99779.78;;;12.83;72.15
5814;BME280;2933;52.302;8.134;2022-11-15T12:16:45;99776.06;;;12.85;71.66
5814;BME280;2933;52.302;8.134;2022-11-15T12:21:50;99780.38;;;12.86;70.07
5814;BME280;2933;52.302;8.134;2022-11-15T12:27:00;99771.09;;;12.82;70.37
5814;BME280;2933;52.302;8.134;2022-11-15T12:32:03;99767.72;;;12.91;69.77
5814;BME280;2933;52.302;8.134;2022-11-15T12:48:58;99762.69;;;13.00;68.45
5814;BME280;2933;52.302;8.134;2022-11-15T12:53:59;99752.25;;;13.09;68.05
5814;BME280;2933;52.302;8.134;2022-11-15T12:59:50;99746.06;;;13.11;68.74
5814;BME280;2933;52.302;8.134;2022-11-15T13:04:54;99731.47;;;13.18;68.17
5814;BME280;2933;52.302;8.134;2022-11-15T13:09:56;99729.38;;;13.12;69.99
5814;BME280;2933;52.302;8.134;2022-11-15T13:14:59;99724.22;;;13.10;70.27
5814;BME280;2933;52.302;8.134;2022-11-15T13:20:20;99726.84;;;13.10;69.20
5814;BME280;2933;52.302;8.134;2022-11-15T13:25:58;99718.69;;;13.03;68.11
5814;BME280;2933;52.302;8.134;2022-11-15T13:31:19;99716.78;;;12.84;69.42
5814;BME280;2933;52.302;8.134;2022-11-15T13:36:24;99710.88;;;12.71;69.75
5814;BME280;2933;52.302;8.134;2022-11-15T13:41:28;99721.94;;;12.74;69.94
5814;BME280;2933;52.302;8.134;2022-11-15T13:46:32;99713.59;;;12.69;70.70
5814;BME280;2933;52.302;8.134;2022-11-15T13:51:37;99706.97;;;12.65;71.37
5814;BME280;2933;52.302;8.134;2022-11-15T13:56:42;99705.22;;;12.54;72.06
5814;BME280;2933;52.302;8.134;2022-11-15T14:01:46;99702.03;;;12.51;72.22
5814;BME280;2933;52.302;8.134;2022-11-15T14:06:50;99695.22;;;12.48;72.06
5814;BME280;2933;52.302;8.134;2022-11-15T14:11:53;99680.50;;;12.47;71.20
5814;BME280;2933;52.302;8.134;2022-11-15T14:16:58;99672.38;;;12.50;70.22
5814;BME280;2933;52.302;8.134;2022-11-15T14:22:11;99671.47;;;12.40;71.15
5814;BME280;2933;52.302;8.134;2022-11-15T14:27:22;99671.06;;;12.23;72.65
5814;BME280;2933;52.302;8.134;2022-11-15T14:32:27;99662.66;;;12.08;73.40
5814;BME280;2933;52.302;8.134;2022-11-15T14:37:31;99654.56;;;12.00;72.89
5814;BME280;2933;52.302;8.134;2022-11-15T14:42:34;99649.97;;;11.81;73.89
5814;BME280;2933;52.302;8.134;2022-11-15T14:47:37;99649.38;;;11.66;74.34
5814;BME280;2933;52.302;8.134;2022-11-15T14:52:38;99648.56;;;11.54;76.19
5814;BME280;2933;52.302;8.134;2022-11-15T14:57:40;99637.75;;;11.47;76.68
5814;BME280;2933;52.302;8.134;2022-11-15T15:02:44;99632.41;;;11.38;76.90
5814;BME280;2933;52.302;8.134;2022-11-15T15:07:47;99622.53;;;11.30;75.73
5814;BME280;2933;52.302;8.134;2022-11-15T15:12:48;99631.22;;;11.19;77.55
5814;BME280;2933;52.302;8.134;2022-11-15T15:17:59;99623.47;;;11.18;77.25
5814;BME280;2933;52.302;8.134;2022-11-15T15:23:00;99627.88;;;11.06;78.46
5814;BME280;2933;52.302;8.134;2022-11-15T15:28:02;99609.44;;;10.85;80.39
5814;BME280;2933;52.302;8.134;2022-11-15T15:33:05;99595.50;;;10.61;81.82
5814;BME280;2933;52.302;8.134;2022-11-15T15:38:09;99605.78;;;10.40;83.68
5814;BME280;2933;52.302;8.134;2022-11-15T15:43:12;99598.59;;;10.19;84.56
5814;BME280;2933;52.302;8.134;2022-11-15T15:48:16;99593.16;;;9.98;85.22
5814;BME280;2933;52.302;8.134;2022-11-15T15:53:17;99587.19;;;9.96;85.04
5814;BME280;2933;52.302;8.134;2022-11-15T15:58:19;99581.88;;;9.98;85.45
5814;BME280;2933;52.302;8.134;2022-11-15T16:03:22;99568.66;;;9.88;85.39
5814;BME280;2933;52.302;8.134;2022-11-15T16:08:24;99565.69;;;9.81;85.35
5814;BME280;2933;52.302;8.134;2022-11-15T16:13:26;99564.38;;;9.87;84.51
5814;BME280;2933;52.302;8.134;2022-11-15T16:18:29;99550.81;;;9.95;84.17
5814;BME280;2933;52.302;8.134;2022-11-15T16:23:33;99538.75;;;9.81;85.24
5814;BME280;2933;52.302;8.134;2022-11-15T16:28:34;99532.94;;;9.53;86.57
5814;BME280;2933;52.302;8.134;2022-11-15T16:33:37;99525.09;;;9.53;87.06
5814;BME280;2933;52.302;8.134;2022-11-15T16:38:39;99533.63;;;9.31;87.73
5814;BME280;2933;52.302;8.134;2022-11-15T16:43:40;99524.56;;;9.24;88.36
5814;BME280;2933;52.302;8.134;2022-11-15T16:48:44;99525.41;;;9.24;88.72
5814;BME280;2933;52.302;8.134;2022-11-15T16:53:45;99516.22;;;9.56;89.58
5814;BME280;2933;52.302;8.134;2022-11-15T16:58:48;99521.66;;;9.77;89.18
5814;BME280;2933;52.302;8.134;2022-11-15T17:03:51;99513.91;;;9.64;89.21
5814;BME280;2933;52.302;8.134;2022-11-15T17:08:53;99505.63;;;9.46;90.53
5814;BME280;2933;52.302;8.134;2022-11-15T17:13:56;99506.91;;;9.40;91.62
5814;BME280;2933;52.302;8.134;2022-11-15T17:18:59;99509.84;;;9.35;92.89
5814;BME280;2933;52.302;8.134;2022-11-15T17:24:00;99501.53;;;9.30;93.64
5814;BME280;2933;52.302;8.134;2022-11-15T17:29:02;99499.06;;;9.16;93.65
5814;BME280;2933;52.302;8.134;2022-11-15T17:34:08;99491.47;;;9.13;94.93
5814;BME280;2933;52.302;8.134;2022-11-15T17:39:09;99490.19;;;9.18;95.27
5814;BME280;2933;52.302;8.134;2022-11-15T17:44:11;99485.22;;;9.02;95.40
5814;BME280;2933;52.302;8.134;2022-11-15T17:49:14;99493.09;;;8.89;96.46
5814;BME280;2933;52.302;8.134;2022-11-15T17:54:15;99488.00;;;9.12;97.35
5814;BME280;2933;52.302;8.134;2022-11-15T17:59:19;99485.47;;;9.24;96.35
5814;BME280;2933;52.302;8.134;2022-11-15T18:04:22;99483.72;;;9.48;95.65
5814;BME280;2933;52.302;8.134;2022-11-15T18:09:27;99485.38;;;9.49;95.93
5814;BME280;2933;52.302;8.134;2022-11-15T18:14:29;99483.84;;;9.47;95.86
5814;BME280;2933;52.302;8.134;2022-11-15T18:19:32;99484.44;;;9.50;95.96
5814;BME280;2933;52.302;8.134;2022-11-15T18:24:34;99486.38;;;9.60;95.65
5814;BME280;2933;52.302;8.134;2022-11-15T18:29:37;99483.22;;;9.67;95.59
5814;BME280;2933;52.302;8.134;2022-11-15T18:34:40;99462.13;;;9.70;94.89
5814;BME280;2933;52.302;8.134;2022-11-15T18:39:42;99475.88;;;9.73;95.55
5814;BME280;2933;52.302;8.134;2022-11-15T18:44:43;99466.69;;;9.80;95.12
5814;BME280;2933;52.302;8.134;2022-11-15T18:49:46;99457.19;;;9.79;95.23
5814;BME280;2933;52.302;8.134;2022-11-15T18:54:48;99449.34;;;9.79;96.07
5814;BME280;2933;52.302;8.134;2022-11-15T18:59:49;99427.28;;;9.72;95.67
5814;BME280;2933;52.302;8.134;2022-11-15T19:04:52;99403.09;;;9.69;95.98
5814;BME280;2933;52.302;8.134;2022-11-15T19:09:54;99416.03;;;9.71;96.86
5814;BME280;2933;52.302;8.134;2022-11-15T19:14:55;99434.19;;;9.84;97.35
5814;BME280;2933;52.302;8.134;2022-11-15T19:19:58;99432.84;;;9.78;97.57
5814;BME280;2933;52.302;8.134;2022-11-15T19:25:00;99406.38;;;9.60;98.18
5814;BME280;2933;52.302;8.134;2022-11-15T19:30:04;99412.34;;;9.74;98.62
5814;BME280;2933;52.302;8.134;2022-11-15T19:35:11;99417.22;;;9.78;98.53
5814;BME280;2933;52.302;8.134;2022-11-15T19:40:13;99391.84;;;9.69;99.44
5814;BME280;2933;52.302;8.134;2022-11-15T19:45:14;99403.09;;;9.81;99.81
5814;BME280;2933;52.302;8.134;2022-11-15T19:50:17;99394.59;;;9.79;99.59
5814;BME280;2933;52.302;8.134;2022-11-15T19:55:19;99383.22;;;9.91;99.63
5814;BME280;2933;52.302;8.134;2022-11-15T20:00:21;99384.44;;;9.98;100.00
5814;BME280;2933;52.302;8.134;2022-11-15T20:05:23;99370.78;;;10.06;99.82
5814;BME280;2933;52.302;8.134;2022-11-15T20:10:25;99373.06;;;10.11;100.00
5814;BME280;2933;52.302;8.134;2022-11-15T20:15:27;99373.16;;;10.09;100.00
5814;BME280;2933;52.302;8.134;2022-11-15T20:20:30;99381.81;;;9.98;100.00
5814;BME280;2933;52.302;8.134;2022-11-15T20:25:31;99363.09;;;10.05;100.00
5814;BME280;2933;52.302;8.134;2022-11-15T20:30:33;99356.41;;;10.00;100.00
5814;BME280;2933;52.302;8.134;2022-11-15T20:35:36;99363.09;;;10.05;100.00
5814;BME280;2933;52.302;8.134;2022-11-15T20:40:38;99381.91;;;10.08;100.00
5814;BME280;2933;52.302;8.134;2022-11-15T20:45:42;99363.91;;;10.05;100.00
5814;BME280;2933;52.302;8.134;2022-11-15T20:50:46;99352.06;;;10.01;100.00
5814;BME280;2933;52.302;8.134;2022-11-15T20:55:48;99360.81;;;10.11;100.00
5814;BME280;2933;52.302;8.134;2022-11-15T21:00:54;99349.56;;;10.11;100.00
5814;BME280;2933;52.302;8.134;2022-11-15T21:05:57;99345.03;;;10.13;100.00
5814;BME280;2933;52.302;8.134;2022-11-15T21:10:59;99339.34;;;10.19;100.00
5814;BME280;2933;52.302;8.134;2022-11-15T21:16:18;99341.00;;;10.20;100.00
5814;BME280;2933;52.302;8.134;2022-11-15T21:21:21;99329.63;;;10.21;100.00
5814;BME280;2933;52.302;8.134;2022-11-15T21:26:23;99332.84;;;10.25;100.00
5814;BME280;2933;52.302;8.134;2022-11-15T21:31:27;99317.03;;;10.26;100.00
5814;BME280;2933;52.302;8.134;2022-11-15T21:36:30;99319.06;;;10.23;100.00
5814;BME280;2933;52.302;8.134;2022-11-15T21:41:32;99299.72;;;10.25;100.00
5814;BME280;2933;52.302;8.134;2022-11-15T21:46:33;99303.88;;;10.28;100.00
5814;BME280;2933;52.302;8.134;2022-11-15T21:51:37;99313.72;;;10.24;100.00
5814;BME280;2933;52.302;8.134;2022-11-15T21:56:39;99313.97;;;10.21;100.00
5814;BME280;2933;52.302;8.134;2022-11-15T22:01:42;99303.41;;;10.11;100.00
5814;BME280;2933;52.302;8.134;2022-11-15T22:07:02;99304.59;;;10.07;100.00
5814;BME280;2933;52.302;8.134;2022-11-15T22:12:04;99308.50;;;10.01;100.00
5814;BME280;2933;52.302;8.134;2022-11-15T22:17:12;99295.22;;;9.93;100.00
5814;BME280;2933;52.302;8.134;2022-11-15T22:22:15;99279.22;;;9.98;100.00
5814;BME280;2933;52.302;8.134;2022-11-15T22:27:16;99282.41;;;10.01;100.00
5814;BME280;2933;52.302;8.134;2022-11-15T22:32:18;99288.09;;;10.07;100.00
5814;BME280;2933;52.302;8.134;2022-11-15T22:37:21;99276.97;;;10.05;100.00
5814;BME280;2933;52.302;8.134;2022-11-15T22:42:23;99274.13;;;9.96;100.00
5814;BME280;2933;52.302;8.134;2022-11-15T22:47:24;99263.91;;;9.93;100.00
5814;BME280;2933;52.302;8.134;2022-11-15T22:52:27;99266.31;;;9.96;100.00
5814;BME280;2933;52.302;8.134;2022-11-15T22:57:29;99260.72;;;10.01;100.00
5814;BME280;2933;52.302;8.134;2022-11-15T23:02:31;99255.13;;;10.06;100.00
5814;BME280;2933;52.302;8.134;2022-11-15T23:07:34;99250.78;;;9.95;100.00
5814;BME280;2933;52.302;8.134;2022-11-15T23:12:35;99249.09;;;10.05;100.00
5814;BME280;2933;52.302;8.134;2022-11-15T23:17:54;99231.09;;;10.02;100.00
5814;BME280;2933;52.302;8.134;2022-11-15T23:22:58;99233.47;;;9.94;100.00
5814;BME280;2933;52.302;8.134;2022-11-15T23:28:00;99244.13;;;10.02;100.00
5814;BME280;2933;52.302;8.134;2022-11-15T23:33:01;99247.09;;;10.09;100.00
5814;BME280;2933;52.302;8.134;2022-11-15T23:38:33;99227.88;;;9.98;100.00
5814;BME280;2933;52.302;8.134;2022-11-15T23:43:36;99242.44;;;10.12;100.00
5814;BME280;2933;52.302;8.134;2022-11-15T23:48:38;99234.03;;;10.09;100.00
5814;BME280;2933;52.302;8.134;2022-11-15T23:53:41;99244.59;;;10.07;100.00
5814;BME280;2933;52.302;8.134;2022-11-15T23:58:43;99239.00;;;10.00;100.00
